createdAt,value
2018-07-20T00:00:03.298Z,11.812
2018-07-20T00:01:03.600Z,11.812
2018-07-20T00:02:03.896Z,11.75
2018-07-20T00:03:04.003Z,11.812
2018-07-20T00:04:04.159Z,11.812
2018-07-20T00:05:03.212Z,11.812
2018-07-20T00:06:03.213Z,11.812
2018-07-20T00:07:03.457Z,11.812
2018-07-20T00:08:03.463Z,11.812
2018-07-20T00:09:03.888Z,11.812
2018-07-20T00:10:03.830Z,11.75
2018-07-20T00:11:04.022Z,11.687
2018-07-20T00:12:04.059Z,11.687
2018-07-20T00:13:03.211Z,11.687
2018-07-20T00:14:03.513Z,11.625
2018-07-20T00:15:03.839Z,11.625
2018-07-20T00:16:04.010Z,11.625
2018-07-20T00:17:03.409Z,11.562
2018-07-20T00:18:03.477Z,11.5
2018-07-20T00:19:03.613Z,11.5
2018-07-20T00:20:03.673Z,11.5
2018-07-20T00:21:03.865Z,11.5
2018-07-20T00:22:04.021Z,11.437
2018-07-20T00:23:03.915Z,11.375
2018-07-20T00:24:03.403Z,11.375
2018-07-20T00:25:03.347Z,11.312
2018-07-20T00:26:03.677Z,11.312
2018-07-20T00:27:03.990Z,11.312
2018-07-20T00:28:03.795Z,11.25
2018-07-20T00:29:03.991Z,11.25
2018-07-20T00:30:04.047Z,11.187
2018-07-20T00:31:03.519Z,11.187
2018-07-20T00:32:04.765Z,11.125
2018-07-20T00:33:03.745Z,11.125
2018-07-20T00:34:03.896Z,11.125
2018-07-20T00:35:04.046Z,11.062
2018-07-20T00:36:03.932Z,11.062
2018-07-20T00:37:03.306Z,11.062
2018-07-20T00:38:03.534Z,11.062
2018-07-20T00:39:03.943Z,11.062
2018-07-20T00:40:03.592Z,11.062
2018-07-20T00:41:04.127Z,11.062
2018-07-20T00:42:05.094Z,11.062
2018-07-20T00:43:04.098Z,11
2018-07-20T00:44:03.644Z,11
2018-07-20T00:45:03.142Z,10.937
2018-07-20T00:46:03.292Z,10.937
2018-07-20T00:47:03.493Z,10.937
2018-07-20T00:48:03.695Z,10.875
2018-07-20T00:49:03.659Z,10.875
2018-07-20T00:50:03.727Z,10.875
2018-07-20T00:51:03.689Z,10.875
2018-07-20T00:52:05.429Z,10.812
2018-07-20T00:53:03.588Z,10.875
2018-07-20T00:54:03.691Z,10.812
2018-07-20T00:55:03.899Z,10.812
2018-07-20T00:56:03.910Z,10.812
2018-07-20T00:57:04.909Z,10.812
2018-07-20T00:58:03.910Z,10.75
2018-07-20T00:59:03.957Z,10.812
2018-07-20T01:00:04.066Z,10.75
2018-07-20T01:01:03.200Z,10.687
2018-07-20T01:02:03.863Z,10.687
2018-07-20T01:03:04.098Z,10.687
2018-07-20T01:04:04.283Z,10.687
2018-07-20T01:05:03.132Z,10.687
2018-07-20T01:06:03.241Z,10.625
2018-07-20T01:07:03.463Z,10.625
2018-07-20T01:08:03.530Z,10.625
2018-07-20T01:09:03.927Z,10.625
2018-07-20T01:10:04.052Z,10.562
2018-07-20T01:11:03.506Z,10.562
2018-07-20T01:12:03.818Z,10.5
2018-07-20T01:13:03.850Z,10.5
2018-07-20T01:14:03.994Z,10.5
2018-07-20T01:15:04.021Z,10.5
2018-07-20T01:16:03.979Z,10.5
2018-07-20T01:17:03.651Z,10.5
2018-07-20T01:18:04.010Z,10.5
2018-07-20T01:19:03.610Z,10.437
2018-07-20T01:20:03.669Z,10.437
2018-07-20T01:21:03.202Z,10.437
2018-07-20T01:22:03.617Z,10.5
2018-07-20T01:23:04.795Z,10.5
2018-07-20T01:24:04.010Z,10.437
2018-07-20T01:25:03.211Z,10.375
2018-07-20T01:26:03.217Z,10.375
2018-07-20T01:27:03.251Z,10.375
2018-07-20T01:28:03.633Z,10.312
2018-07-20T01:29:05.176Z,10.375
2018-07-20T01:30:03.277Z,10.312
2018-07-20T01:31:03.514Z,10.312
2018-07-20T01:32:03.694Z,10.312
2018-07-20T01:33:03.689Z,10.25
2018-07-20T01:34:03.671Z,10.25
2018-07-20T01:35:03.804Z,10.187
2018-07-20T01:36:03.771Z,10.187
2018-07-20T01:37:03.933Z,10.187
2018-07-20T01:38:04.282Z,10.187
2018-07-20T01:39:03.871Z,10.187
2018-07-20T01:40:03.924Z,10.125
2018-07-20T01:41:03.243Z,10.125
2018-07-20T01:42:03.651Z,10.125
2018-07-20T01:43:03.932Z,10.062
2018-07-20T01:44:04.008Z,10.062
2018-07-20T01:45:04.093Z,10.062
2018-07-20T01:46:03.306Z,10
2018-07-20T01:47:04.038Z,10
2018-07-20T01:48:03.454Z,10
2018-07-20T01:49:03.529Z,10
2018-07-20T01:50:03.696Z,10
2018-07-20T01:51:03.925Z,10
2018-07-20T01:52:04.035Z,10
2018-07-20T01:53:04.089Z,9.937
2018-07-20T01:54:03.375Z,10
2018-07-20T01:55:03.630Z,10
2018-07-20T01:56:03.784Z,10
2018-07-20T01:57:03.768Z,10
2018-07-20T01:58:03.921Z,10
2018-07-20T01:59:03.445Z,10
2018-07-20T02:00:03.857Z,10
2018-07-20T02:01:04.147Z,9.937
2018-07-20T02:02:04.322Z,9.937
2018-07-20T02:03:03.550Z,9.875
2018-07-20T02:04:03.683Z,9.875
2018-07-20T02:05:03.932Z,9.875
2018-07-20T02:06:04.151Z,9.812
2018-07-20T02:07:03.450Z,9.812
2018-07-20T02:08:03.556Z,9.75
2018-07-20T02:09:04.137Z,9.812
2018-07-20T02:10:04.088Z,9.75
2018-07-20T02:11:03.223Z,9.75
2018-07-20T02:12:03.374Z,9.812
2018-07-20T02:13:03.465Z,9.812
2018-07-20T02:14:03.544Z,9.812
2018-07-20T02:15:03.683Z,9.812
2018-07-20T02:16:04.055Z,9.812
2018-07-20T02:17:04.273Z,9.812
2018-07-20T02:18:03.564Z,9.875
2018-07-20T02:19:03.645Z,9.875
2018-07-20T02:20:03.834Z,9.875
2018-07-20T02:21:03.613Z,9.875
2018-07-20T02:22:03.778Z,9.812
2018-07-20T02:23:03.526Z,9.812
2018-07-20T02:24:03.783Z,9.812
2018-07-20T02:25:04.104Z,9.75
2018-07-20T02:26:04.213Z,9.75
2018-07-20T02:27:03.324Z,9.687
2018-07-20T02:28:03.360Z,9.687
2018-07-20T02:29:03.750Z,9.687
2018-07-20T02:30:03.422Z,9.625
2018-07-20T02:31:03.546Z,9.687
2018-07-20T02:32:03.695Z,9.687
2018-07-20T02:33:03.874Z,9.687
2018-07-20T02:34:04.008Z,9.687
2018-07-20T02:35:03.284Z,9.75
2018-07-20T02:36:03.513Z,9.75
2018-07-20T02:37:03.736Z,9.75
2018-07-20T02:38:03.869Z,9.812
2018-07-20T02:39:04.404Z,9.812
2018-07-20T02:40:03.491Z,9.812
2018-07-20T02:41:03.613Z,9.75
2018-07-20T02:42:03.662Z,9.687
2018-07-20T02:43:03.665Z,9.687
2018-07-20T02:44:03.949Z,9.625
2018-07-20T02:45:03.629Z,9.625
2018-07-20T02:46:03.686Z,9.625
2018-07-20T02:47:04.094Z,9.562
2018-07-20T02:48:03.398Z,9.562
2018-07-20T02:49:03.654Z,9.562
2018-07-20T02:50:04.736Z,9.625
2018-07-20T02:51:03.784Z,9.625
2018-07-20T02:52:03.731Z,9.625
2018-07-20T02:53:03.850Z,9.625
2018-07-20T02:54:04.061Z,9.625
2018-07-20T02:55:03.249Z,9.687
2018-07-20T02:56:03.475Z,9.75
2018-07-20T02:57:03.587Z,9.75
2018-07-20T02:58:03.543Z,9.75
2018-07-20T02:59:03.784Z,9.75
2018-07-20T03:00:03.932Z,9.687
2018-07-20T03:01:03.291Z,9.687
2018-07-20T03:02:03.572Z,9.625
2018-07-20T03:03:03.839Z,9.562
2018-07-20T03:04:04.110Z,9.625
2018-07-20T03:05:03.427Z,9.625
2018-07-20T03:06:03.652Z,9.625
2018-07-20T03:07:03.795Z,9.625
2018-07-20T03:08:03.884Z,9.625
2018-07-20T03:09:04.189Z,9.687
2018-07-20T03:10:03.339Z,9.687
2018-07-20T03:11:03.472Z,9.687
2018-07-20T03:12:03.728Z,9.687
2018-07-20T03:13:03.784Z,9.687
2018-07-20T03:14:03.858Z,9.687
2018-07-20T03:15:03.965Z,9.625
2018-07-20T03:16:03.982Z,9.625
2018-07-20T03:17:03.543Z,9.625
2018-07-20T03:18:03.781Z,9.625
2018-07-20T03:19:03.456Z,9.687
2018-07-20T03:20:03.642Z,9.75
2018-07-20T03:21:03.749Z,9.875
2018-07-20T03:22:04.029Z,9.937
2018-07-20T03:23:03.279Z,10.062
2018-07-20T03:24:03.841Z,10.187
2018-07-20T03:25:04.105Z,10.312
2018-07-20T03:26:06.309Z,10.5
2018-07-20T03:27:03.409Z,10.625
2018-07-20T03:28:03.558Z,10.75
2018-07-20T03:29:03.704Z,10.812
2018-07-20T03:30:03.706Z,10.937
2018-07-20T03:31:03.971Z,11.062
2018-07-20T03:32:04.153Z,11.125
2018-07-20T03:33:03.399Z,11.25
2018-07-20T03:34:03.777Z,11.437
2018-07-20T03:35:03.962Z,11.562
2018-07-20T03:36:04.090Z,11.687
2018-07-20T03:37:03.534Z,11.875
2018-07-20T03:38:03.909Z,12
2018-07-20T03:39:03.381Z,12.187
2018-07-20T03:40:03.928Z,12.312
2018-07-20T03:41:03.283Z,12.5
2018-07-20T03:42:03.454Z,12.687
2018-07-20T03:43:03.647Z,12.875
2018-07-20T03:44:04.030Z,13.062
2018-07-20T03:45:03.538Z,13.25
2018-07-20T03:46:03.729Z,13.5
2018-07-20T03:47:03.741Z,13.75
2018-07-20T03:48:03.892Z,14
2018-07-20T03:49:04.177Z,14.125
2018-07-20T03:50:03.383Z,14.375
2018-07-20T03:51:03.696Z,14.562
2018-07-20T03:52:03.869Z,14.75
2018-07-20T03:53:04.005Z,14.937
2018-07-20T03:54:03.362Z,15.062
2018-07-20T03:55:03.747Z,15.187
2018-07-20T03:56:03.788Z,15.312
2018-07-20T03:57:03.922Z,15.562
2018-07-20T03:58:04.037Z,15.687
2018-07-20T03:59:04.060Z,15.875
2018-07-20T04:00:03.222Z,16.062
2018-07-20T04:01:03.660Z,16.187
2018-07-20T04:02:03.796Z,16.375
2018-07-20T04:03:04.033Z,16.5
2018-07-20T04:04:03.282Z,16.625
2018-07-20T04:05:03.637Z,16.75
2018-07-20T04:06:03.777Z,16.875
2018-07-20T04:07:04.050Z,17.062
2018-07-20T04:08:04.019Z,17.25
2018-07-20T04:09:03.573Z,17.375
2018-07-20T04:10:03.582Z,17.437
2018-07-20T04:11:03.627Z,17.625
2018-07-20T04:12:03.236Z,17.75
2018-07-20T04:13:03.412Z,17.937
2018-07-20T04:14:03.570Z,18
2018-07-20T04:15:03.726Z,18.062
2018-07-20T04:16:04.196Z,18.25
2018-07-20T04:17:03.475Z,18.312
2018-07-20T04:18:03.768Z,18.5
2018-07-20T04:19:04.275Z,18.625
2018-07-20T04:20:03.372Z,18.812
2018-07-20T04:21:03.535Z,18.937
2018-07-20T04:22:03.709Z,19.062
2018-07-20T04:23:03.893Z,19.25
2018-07-20T04:24:03.327Z,19.375
2018-07-20T04:25:05.253Z,19.5
2018-07-20T04:26:03.155Z,19.625
2018-07-20T04:27:03.313Z,19.812
2018-07-20T04:28:03.393Z,19.875
2018-07-20T04:29:03.483Z,20
2018-07-20T04:30:03.669Z,20.062
2018-07-20T04:31:03.791Z,20.187
2018-07-20T04:32:03.956Z,20.375
2018-07-20T04:33:04.095Z,20.437
2018-07-20T04:34:04.107Z,20.5
2018-07-20T04:35:03.382Z,20.5
2018-07-20T04:36:03.650Z,20.5
2018-07-20T04:37:03.946Z,20.687
2018-07-20T04:38:04.116Z,20.812
2018-07-20T04:39:03.776Z,21
2018-07-20T04:40:03.942Z,21.125
2018-07-20T04:41:03.799Z,21.375
2018-07-20T04:42:04.066Z,21.437
2018-07-20T04:43:04.194Z,21.5
2018-07-20T04:44:03.174Z,21.562
2018-07-20T04:45:03.391Z,21.75
2018-07-20T04:46:03.550Z,21.812
2018-07-20T04:47:03.747Z,21.875
2018-07-20T04:48:04.134Z,22
2018-07-20T04:49:03.150Z,22.062
2018-07-20T04:50:03.294Z,22.187
2018-07-20T04:51:03.697Z,22.25
2018-07-20T04:52:03.932Z,22.437
2018-07-20T04:53:04.108Z,22.562
2018-07-20T04:54:04.106Z,22.875
2018-07-20T04:55:04.163Z,23.062
2018-07-20T04:56:03.465Z,23.062
2018-07-20T04:57:03.759Z,23
2018-07-20T04:58:04.135Z,22.812
2018-07-20T04:59:04.105Z,22.562
2018-07-20T05:00:04.267Z,22.375
2018-07-20T05:01:03.203Z,22.437
2018-07-20T05:02:03.575Z,22.562
2018-07-20T05:03:03.845Z,22.625
2018-07-20T05:04:03.269Z,22.812
2018-07-20T05:05:03.669Z,22.875
2018-07-20T05:06:04.060Z,23
2018-07-20T05:07:05.191Z,23.062
2018-07-20T05:08:04.050Z,23.125
2018-07-20T05:09:04.230Z,23.375
2018-07-20T05:10:03.400Z,23.5
2018-07-20T05:11:03.680Z,23.5
2018-07-20T05:12:03.881Z,23.687
2018-07-20T05:13:03.786Z,23.937
2018-07-20T05:14:03.307Z,24.187
2018-07-20T05:15:03.558Z,24.375
2018-07-20T05:16:03.853Z,24.437
2018-07-20T05:17:03.427Z,24.562
2018-07-20T05:18:03.555Z,24.5
2018-07-20T05:19:03.717Z,24.562
2018-07-20T05:20:04.019Z,24.5
2018-07-20T05:21:03.232Z,24.562
2018-07-20T05:22:03.440Z,24.5
2018-07-20T05:23:03.832Z,24.5
2018-07-20T05:24:04.159Z,24.562
2018-07-20T05:25:03.469Z,24.812
2018-07-20T05:26:03.690Z,24.812
2018-07-20T05:27:03.704Z,24.937
2018-07-20T05:28:03.921Z,25.125
2018-07-20T05:29:03.307Z,25.125
2018-07-20T05:30:08.779Z,25.25
2018-07-20T05:31:03.151Z,25.375
2018-07-20T05:32:03.157Z,25.375
2018-07-20T05:33:03.447Z,25.312
2018-07-20T05:34:03.152Z,25.125
2018-07-20T05:35:03.393Z,25.125
2018-07-20T05:36:03.665Z,25.062
2018-07-20T05:37:03.895Z,25.312
2018-07-20T05:38:03.788Z,25.312
2018-07-20T05:39:04.351Z,25.562
2018-07-20T05:40:03.473Z,25.625
2018-07-20T05:41:03.820Z,25.687
2018-07-20T05:42:03.318Z,25.562
2018-07-20T05:43:03.585Z,25.625
2018-07-20T05:44:04.814Z,25.937
2018-07-20T05:45:03.884Z,26.187
2018-07-20T05:46:05.136Z,26.25
2018-07-20T05:47:04.208Z,26.437
2018-07-20T05:48:03.318Z,26.437
2018-07-20T05:49:03.388Z,26.437
2018-07-20T05:50:03.927Z,26.625
2018-07-20T05:51:04.055Z,26.625
2018-07-20T05:52:04.043Z,26.375
2018-07-20T05:53:03.313Z,26.062
2018-07-20T05:54:03.409Z,26
2018-07-20T05:55:03.604Z,26.187
2018-07-20T05:56:03.215Z,26.5
2018-07-20T05:57:04.304Z,26.687
2018-07-20T05:58:03.787Z,26.5
2018-07-20T05:59:03.889Z,26.25
2018-07-20T06:00:04.085Z,26.25
2018-07-20T06:01:03.499Z,26.312
2018-07-20T06:02:04.106Z,26.5
2018-07-20T06:03:03.351Z,26.25
2018-07-20T06:04:03.603Z,26.312
2018-07-20T06:05:03.924Z,26.25
2018-07-20T06:06:03.224Z,26.187
2018-07-20T06:07:03.341Z,26.25
2018-07-20T06:08:03.688Z,26.187
2018-07-20T06:09:04.054Z,26.187
2018-07-20T06:10:04.164Z,26.062
2018-07-20T06:11:03.334Z,26
2018-07-20T06:12:03.439Z,25.937
2018-07-20T06:13:03.893Z,25.937
2018-07-20T06:14:04.055Z,25.75
2018-07-20T06:15:04.165Z,25.75
2018-07-20T06:16:03.565Z,26
2018-07-20T06:17:04.009Z,26.25
2018-07-20T06:18:03.315Z,26.312
2018-07-20T06:19:03.560Z,26.437
2018-07-20T06:20:03.851Z,26.562
2018-07-20T06:21:03.885Z,26.5
2018-07-20T06:22:03.876Z,26.75
2018-07-20T06:23:03.953Z,27.062
2018-07-20T06:24:03.946Z,27.062
2018-07-20T06:25:04.073Z,26.937
2018-07-20T06:26:03.478Z,26.812
2018-07-20T06:27:03.754Z,26.875
2018-07-20T06:28:03.766Z,26.812
2018-07-20T06:29:03.900Z,26.937
2018-07-20T06:30:03.932Z,27.125
2018-07-20T06:31:03.186Z,27.187
2018-07-20T06:32:03.407Z,27.437
2018-07-20T06:33:03.538Z,27.5
2018-07-20T06:34:04.871Z,27.375
2018-07-20T06:35:03.887Z,27.125
2018-07-20T06:36:05.137Z,26.937
2018-07-20T06:37:03.293Z,26.812
2018-07-20T06:38:03.447Z,26.812
2018-07-20T06:39:03.676Z,26.875
2018-07-20T06:40:03.843Z,26.875
2018-07-20T06:41:04.131Z,26.812
2018-07-20T06:42:03.396Z,26.687
2018-07-20T06:43:03.394Z,26.562
2018-07-20T06:44:03.572Z,26.562
2018-07-20T06:45:03.842Z,26.5
2018-07-20T06:46:03.146Z,26.437
2018-07-20T06:47:03.414Z,26.562
2018-07-20T06:48:03.604Z,26.687
2018-07-20T06:49:03.868Z,26.875
2018-07-20T06:50:04.115Z,26.812
2018-07-20T06:51:03.411Z,26.812
2018-07-20T06:52:03.465Z,26.812
2018-07-20T06:53:03.526Z,26.875
2018-07-20T06:54:03.700Z,26.875
2018-07-20T06:55:03.916Z,27
2018-07-20T06:56:03.283Z,26.937
2018-07-20T06:57:03.307Z,26.937
2018-07-20T06:58:03.465Z,26.875
2018-07-20T06:59:03.720Z,26.937
2018-07-20T07:00:03.258Z,27.062
2018-07-20T07:01:03.442Z,27.062
2018-07-20T07:02:03.767Z,27
2018-07-20T07:03:03.971Z,26.937
2018-07-20T07:04:04.114Z,27
2018-07-20T07:05:04.139Z,27
2018-07-20T07:06:03.460Z,26.937
2018-07-20T07:07:03.809Z,26.937
2018-07-20T07:08:04.080Z,27.125
2018-07-20T07:09:03.749Z,27.187
2018-07-20T07:10:04.990Z,27.5
2018-07-20T07:11:04.099Z,27.75
2018-07-20T07:12:04.105Z,28.062
2018-07-20T07:13:04.239Z,28.187
2018-07-20T07:15:03.620Z,28.312
2018-07-20T07:16:03.724Z,28.25
2018-07-20T07:17:04.253Z,28.437
2018-07-20T07:18:03.454Z,28.75
2018-07-20T07:19:03.550Z,28.625
2018-07-20T07:20:03.831Z,28.5
2018-07-20T07:21:04.310Z,28.437
2018-07-20T07:22:03.433Z,28.625
2018-07-20T07:23:03.676Z,28.562
2018-07-20T07:24:04.037Z,28.875
2018-07-20T07:25:04.122Z,28.875
2018-07-20T07:26:03.377Z,29
2018-07-20T07:27:03.675Z,28.875
2018-07-20T07:28:03.892Z,29
2018-07-20T07:29:03.256Z,28.937
2018-07-20T07:30:03.488Z,29
2018-07-20T07:31:03.547Z,29.187
2018-07-20T07:32:03.807Z,29.312
2018-07-20T07:33:03.763Z,29.25
2018-07-20T07:34:03.385Z,29.125
2018-07-20T07:35:03.566Z,29.125
2018-07-20T07:36:03.696Z,29.187
2018-07-20T07:37:03.835Z,29.25
2018-07-20T07:38:04.018Z,29.625
2018-07-20T07:39:04.346Z,29.687
2018-07-20T07:40:03.542Z,29.437
2018-07-20T07:41:03.959Z,29
2018-07-20T07:42:04.031Z,28.562
2018-07-20T07:43:03.280Z,28.187
2018-07-20T07:44:04.258Z,27.937
2018-07-20T07:45:03.306Z,27.75
2018-07-20T07:46:03.504Z,27.5
2018-07-20T07:47:08.733Z,27.375
2018-07-20T07:48:03.230Z,27.187
2018-07-20T07:49:03.373Z,27
2018-07-20T07:50:03.550Z,26.812
2018-07-20T07:51:03.669Z,26.812
2018-07-20T07:52:03.969Z,26.812
2018-07-20T07:53:04.972Z,27
2018-07-20T07:54:04.063Z,27.187
2018-07-20T07:55:03.371Z,27.375
2018-07-20T07:56:03.497Z,27.75
2018-07-20T07:57:03.852Z,28
2018-07-20T07:58:03.981Z,28.375
2018-07-20T07:59:04.085Z,28.687
2018-07-20T08:00:03.472Z,28.625
2018-07-20T08:01:03.744Z,28.625
2018-07-20T08:02:03.850Z,28.687
2018-07-20T08:03:04.155Z,28.687
2018-07-20T08:04:03.287Z,28.625
2018-07-20T08:05:03.545Z,28.75
2018-07-20T08:06:03.869Z,28.75
2018-07-20T08:07:04.496Z,28.562
2018-07-20T08:08:03.627Z,28.25
2018-07-20T08:09:04.227Z,28.125
2018-07-20T08:10:03.453Z,28.062
2018-07-20T08:11:03.614Z,28.25
2018-07-20T08:12:03.866Z,28.562
2018-07-20T08:13:04.063Z,28.687
2018-07-20T08:14:03.201Z,28.812
2018-07-20T08:15:04.031Z,28.875
2018-07-20T08:16:04.522Z,28.937
2018-07-20T08:17:03.595Z,28.75
2018-07-20T08:18:03.718Z,28.812
2018-07-20T08:19:03.879Z,28.812
2018-07-20T08:20:04.146Z,28.75
2018-07-20T08:21:03.825Z,28.812
2018-07-20T08:22:03.868Z,29.125
2018-07-20T08:23:03.960Z,29.187
2018-07-20T08:24:03.950Z,29.375
2018-07-20T08:25:03.622Z,29.75
2018-07-20T08:26:03.226Z,30.25
2018-07-20T08:27:03.312Z,30.375
2018-07-20T08:28:04.199Z,30.437
2018-07-20T08:29:03.880Z,30.5
2018-07-20T08:30:03.712Z,30.312
2018-07-20T08:31:03.552Z,30
2018-07-20T08:32:03.749Z,29.625
2018-07-20T08:33:03.789Z,29.5
2018-07-20T08:34:03.991Z,29.375
2018-07-20T08:35:03.578Z,29.25
2018-07-20T08:36:04.447Z,29.25
2018-07-20T08:37:03.442Z,29.187
2018-07-20T08:38:03.700Z,29.375
2018-07-20T08:39:03.616Z,29.437
2018-07-20T08:40:03.876Z,29.5
2018-07-20T08:41:05.137Z,29.687
2018-07-20T08:42:04.185Z,29.75
2018-07-20T08:43:03.466Z,30
2018-07-20T08:44:03.652Z,30.437
2018-07-20T08:45:03.799Z,30.375
2018-07-20T08:46:04.070Z,30.25
2018-07-20T08:47:03.555Z,30
2018-07-20T08:48:03.742Z,30
2018-07-20T08:49:03.931Z,29.937
2018-07-20T08:50:04.125Z,29.875
2018-07-20T08:51:03.548Z,29.875
2018-07-20T08:52:03.812Z,29.75
2018-07-20T08:53:04.105Z,29.937
2018-07-20T08:54:03.355Z,30
2018-07-20T08:55:03.705Z,30.062
2018-07-20T08:56:03.880Z,30.125
2018-07-20T08:57:03.417Z,30.375
2018-07-20T08:58:03.508Z,30.562
2018-07-20T08:59:03.942Z,30.625
2018-07-20T09:00:03.377Z,30.375
2018-07-20T09:01:04.164Z,30.437
2018-07-20T09:02:03.660Z,30.812
2018-07-20T09:03:03.997Z,31
2018-07-20T09:04:04.079Z,31.312
2018-07-20T09:05:03.474Z,31.687
2018-07-20T09:06:03.765Z,31.75
2018-07-20T09:07:03.214Z,31.687
2018-07-20T09:08:03.400Z,31.437
2018-07-20T09:09:03.725Z,31.5
2018-07-20T09:10:03.865Z,31.625
2018-07-20T09:11:04.012Z,31.625
2018-07-20T09:12:03.284Z,31.562
2018-07-20T09:13:03.812Z,31.75
2018-07-20T09:14:04.142Z,31.875
2018-07-20T09:15:03.627Z,31.875
2018-07-20T09:16:03.805Z,31.562
2018-07-20T09:17:04.376Z,31.562
2018-07-20T09:18:03.572Z,31.875
2018-07-20T09:19:03.790Z,32
2018-07-20T09:20:04.191Z,32.125
2018-07-20T09:21:03.506Z,32.375
2018-07-20T09:22:04.121Z,32.25
2018-07-20T09:23:03.417Z,32.062
2018-07-20T09:24:03.549Z,32
2018-07-20T09:25:03.705Z,32.125
2018-07-20T09:26:03.903Z,32.125
2018-07-20T09:27:05.375Z,32.375
2018-07-20T09:28:03.520Z,32.562
2018-07-20T09:29:03.741Z,32.812
2018-07-20T09:30:03.799Z,32.562
2018-07-20T09:31:03.973Z,32.562
2018-07-20T09:32:03.950Z,32.5
2018-07-20T09:33:03.368Z,32.375
2018-07-20T09:34:03.461Z,32.062
2018-07-20T09:35:03.847Z,31.812
2018-07-20T09:36:04.005Z,31.562
2018-07-20T09:37:03.308Z,31.437
2018-07-20T09:38:03.532Z,31.5
2018-07-20T09:39:04.095Z,31.437
2018-07-20T09:40:03.260Z,31.312
2018-07-20T09:41:03.369Z,31.062
2018-07-20T09:42:03.465Z,31.062
2018-07-20T09:43:03.680Z,31.125
2018-07-20T09:44:04.011Z,31.125
2018-07-20T09:45:04.213Z,31.125
2018-07-20T09:46:03.471Z,31.125
2018-07-20T09:47:03.617Z,31.125
2018-07-20T09:48:04.152Z,31.125
2018-07-20T09:49:03.340Z,31.25
2018-07-20T09:50:03.869Z,31.437
2018-07-20T09:51:03.669Z,31.625
2018-07-20T09:52:04.052Z,31.937
2018-07-20T09:53:03.349Z,31.875
2018-07-20T09:54:03.737Z,31.875
2018-07-20T09:55:03.934Z,31.75
2018-07-20T09:56:03.986Z,31.687
2018-07-20T09:57:04.113Z,31.5
2018-07-20T09:58:03.361Z,31.25
2018-07-20T09:59:03.916Z,31
2018-07-20T10:00:03.871Z,30.937
2018-07-20T10:01:04.107Z,31.125
2018-07-20T10:02:04.170Z,31.062
2018-07-20T10:03:04.128Z,30.75
2018-07-20T10:04:04.136Z,30.75
2018-07-20T10:05:03.357Z,30.937
2018-07-20T10:06:03.818Z,31
2018-07-20T10:07:03.208Z,31
2018-07-20T10:08:03.692Z,31.062
2018-07-20T10:09:04.319Z,31.375
2018-07-20T10:10:03.349Z,31.375
2018-07-20T10:11:03.429Z,31.187
2018-07-20T10:12:03.686Z,31
2018-07-20T10:13:03.695Z,30.937
2018-07-20T10:14:03.937Z,31.125
2018-07-20T10:15:05.142Z,30.937
2018-07-20T10:16:03.489Z,30.875
2018-07-20T10:17:03.749Z,30.937
2018-07-20T10:18:03.920Z,30.75
2018-07-20T10:19:04.174Z,30.75
2018-07-20T10:20:03.321Z,30.875
2018-07-20T10:21:03.614Z,30.937
2018-07-20T10:22:04.033Z,31
2018-07-20T10:23:04.030Z,31.187
2018-07-20T10:24:03.771Z,31.187
2018-07-20T10:25:03.734Z,31.125
2018-07-20T10:26:03.946Z,30.937
2018-07-20T10:27:03.944Z,30.937
2018-07-20T10:28:04.098Z,30.875
2018-07-20T10:29:05.195Z,31.062
2018-07-20T10:30:04.113Z,31.25
2018-07-20T10:31:04.160Z,31.625
2018-07-20T10:32:03.494Z,31.937
2018-07-20T10:33:03.878Z,32.125
2018-07-20T10:34:04.343Z,32.187
2018-07-20T10:35:03.296Z,31.875
2018-07-20T10:36:03.533Z,31.687
2018-07-20T10:37:03.928Z,31.562
2018-07-20T10:38:03.330Z,31.562
2018-07-20T10:39:03.861Z,31.75
2018-07-20T10:40:03.871Z,31.812
2018-07-20T10:41:03.927Z,31.875
2018-07-20T10:42:03.227Z,31.875
2018-07-20T10:43:03.474Z,31.875
2018-07-20T10:44:03.727Z,31.875
2018-07-20T10:45:03.876Z,31.937
2018-07-20T10:46:03.948Z,31.75
2018-07-20T10:47:04.035Z,31.375
2018-07-20T10:48:03.624Z,31.25
2018-07-20T10:49:03.954Z,31.125
2018-07-20T10:50:03.296Z,31
2018-07-20T10:51:03.493Z,30.937
2018-07-20T10:52:03.686Z,30.812
2018-07-20T10:53:03.960Z,30.75
2018-07-20T10:54:03.241Z,30.812
2018-07-20T10:55:03.630Z,30.875
2018-07-20T10:56:03.884Z,31.125
2018-07-20T10:57:03.494Z,31.5
2018-07-20T10:58:04.634Z,31.625
2018-07-20T10:59:03.817Z,31.937
2018-07-20T11:00:04.004Z,32.125
2018-07-20T11:01:04.128Z,32.312
2018-07-20T11:02:03.254Z,32.437
2018-07-20T11:03:03.605Z,32.375
2018-07-20T11:04:03.966Z,32.5
2018-07-20T11:05:04.271Z,32.562
2018-07-20T11:06:04.222Z,32.25
2018-07-20T11:07:03.449Z,31.937
2018-07-20T11:08:03.911Z,31.937
2018-07-20T11:09:03.597Z,31.625
2018-07-20T11:10:03.290Z,31.437
2018-07-20T11:11:03.699Z,31.375
2018-07-20T11:12:03.921Z,31.375
2018-07-20T11:13:04.146Z,31.437
2018-07-20T11:14:03.401Z,31.187
2018-07-20T11:15:03.660Z,30.937
2018-07-20T11:16:03.811Z,30.5
2018-07-20T11:17:04.326Z,30.25
2018-07-20T11:19:03.868Z,30.25
2018-07-20T11:20:04.035Z,30.312
2018-07-20T11:21:04.163Z,30.312
2018-07-20T11:22:03.328Z,30.5
2018-07-20T11:23:03.588Z,30.437
2018-07-20T11:24:04.183Z,30.437
2018-07-20T11:25:03.258Z,30.375
2018-07-20T11:26:03.386Z,30.25
2018-07-20T11:27:03.650Z,30.187
2018-07-20T11:28:03.784Z,30.125
2018-07-20T11:29:04.088Z,29.937
2018-07-20T11:30:03.567Z,30.187
2018-07-20T11:31:04.654Z,30.562
2018-07-20T11:32:03.649Z,30.75
2018-07-20T11:33:03.746Z,31
2018-07-20T11:34:03.865Z,31
2018-07-20T11:35:03.992Z,31
2018-07-20T11:36:03.443Z,30.875
2018-07-20T11:37:03.636Z,30.75
2018-07-20T11:38:03.872Z,30.75
2018-07-20T11:39:03.464Z,30.812
2018-07-20T11:40:03.607Z,30.875
2018-07-20T11:41:03.969Z,30.875
2018-07-20T11:42:04.004Z,30.812
2018-07-20T11:43:04.176Z,30.812
2018-07-20T11:44:04.903Z,30.937
2018-07-20T11:45:03.875Z,31
2018-07-20T11:46:03.964Z,30.937
2018-07-20T11:47:03.169Z,31.187
2018-07-20T11:48:04.185Z,31.375
2018-07-20T11:49:03.371Z,31.687
2018-07-20T11:50:03.627Z,31.937
2018-07-20T11:51:03.804Z,31.937
2018-07-20T11:52:04.203Z,31.875
2018-07-20T11:53:03.336Z,32
2018-07-20T11:54:03.316Z,32
2018-07-20T11:55:03.469Z,32.062
2018-07-20T11:56:03.590Z,32
2018-07-20T11:57:03.786Z,31.875
2018-07-20T11:58:04.045Z,31.562
2018-07-20T11:59:03.465Z,31.5
2018-07-20T12:00:03.644Z,31.312
2018-07-20T12:01:03.695Z,31.25
2018-07-20T12:02:03.924Z,31.062
2018-07-20T12:03:03.629Z,30.937
2018-07-20T12:04:03.237Z,30.687
2018-07-20T12:05:03.621Z,30.5
2018-07-20T12:06:03.561Z,30.5
2018-07-20T12:07:03.716Z,30.625
2018-07-20T12:08:03.863Z,30.5
2018-07-20T12:09:04.484Z,30.562
2018-07-20T12:10:03.409Z,30.687
2018-07-20T12:11:03.591Z,30.875
2018-07-20T12:12:03.775Z,31.125
2018-07-20T12:13:03.877Z,30.875
2018-07-20T12:14:04.007Z,30.75
2018-07-20T12:15:04.041Z,30.75
2018-07-20T12:16:04.130Z,30.75
2018-07-20T12:17:04.323Z,30.687
2018-07-20T12:18:03.800Z,30.812
2018-07-20T12:19:04.008Z,30.937
2018-07-20T12:20:05.121Z,31.125
2018-07-20T12:21:04.039Z,31.062
2018-07-20T12:22:04.197Z,30.875
2018-07-20T12:23:04.115Z,30.75
2018-07-20T12:24:03.643Z,30.687
2018-07-20T12:25:03.794Z,30.437
2018-07-20T12:26:03.389Z,30.125
2018-07-20T12:27:03.698Z,30.062
2018-07-20T12:28:03.820Z,29.937
2018-07-20T12:29:03.951Z,30.125
2018-07-20T12:30:04.008Z,30.125
2018-07-20T12:31:04.072Z,30.187
2018-07-20T12:32:03.570Z,30.25
2018-07-20T12:33:03.786Z,30.312
2018-07-20T12:34:03.988Z,30.062
2018-07-20T12:36:03.767Z,30.062
2018-07-20T12:37:04.203Z,29.875
2018-07-20T12:38:03.367Z,29.875
2018-07-20T12:39:03.633Z,29.812
2018-07-20T12:40:03.784Z,29.687
2018-07-20T12:41:03.933Z,29.687
2018-07-20T12:42:04.006Z,29.875
2018-07-20T12:43:04.177Z,30.062
2018-07-20T12:44:04.008Z,30.125
2018-07-20T12:45:04.108Z,30.25
2018-07-20T12:46:03.455Z,30.25
2018-07-20T12:47:03.631Z,30.312